createdAt,value
2022-10-16T00:00:49.358Z,18.37
2022-10-16T00:03:51.271Z,17.62
2022-10-16T00:06:53.148Z,17.83
2022-10-16T00:09:55.148Z,18.01
2022-10-16T00:12:56.966Z,18.31
2022-10-16T00:15:59.359Z,17.53
2022-10-16T00:19:01.233Z,17.92
2022-10-16T00:22:03.221Z,18.36
2022-10-16T00:25:05.188Z,18.32
2022-10-16T00:28:07.095Z,18.67
2022-10-16T00:31:10.136Z,17.86
2022-10-16T00:34:12.004Z,18.18
2022-10-16T00:37:13.919Z,18.59
2022-10-16T00:40:15.722Z,18.85
2022-10-16T00:43:34.994Z,18.76
2022-10-16T00:46:39.099Z,17.64
2022-10-16T00:49:40.929Z,18.48
2022-10-16T00:52:43.189Z,18.82
2022-10-16T00:55:44.982Z,18.86
2022-10-16T00:58:46.790Z,18.60
2022-10-16T01:01:48.639Z,18.66
2022-10-16T01:04:51.848Z,18.33
2022-10-16T01:07:53.811Z,18.50
2022-10-16T01:10:58.457Z,18.47
2022-10-16T01:14:01.590Z,18.13
2022-10-16T01:17:07.970Z,18.41
2022-10-16T01:20:09.868Z,18.09
2022-10-16T01:23:24.084Z,18.33
2022-10-16T01:26:31.900Z,17.42
2022-10-16T01:29:36.008Z,17.53
2022-10-16T01:32:39.385Z,17.88
2022-10-16T01:35:45.848Z,17.73
2022-10-16T01:38:48.436Z,16.34
2022-10-16T01:41:50.853Z,17.29
2022-10-16T01:44:52.974Z,16.98
2022-10-16T01:47:55.153Z,16.51
2022-10-16T01:50:59.783Z,17.49
2022-10-16T01:54:02.277Z,17.11
2022-10-16T01:57:05.405Z,17.24
2022-10-16T02:00:08.928Z,17.41
2022-10-16T02:03:10.927Z,17.37
2022-10-16T02:06:12.835Z,17.99
2022-10-16T02:09:16.784Z,17.68
2022-10-16T02:12:28.672Z,17.12
2022-10-16T02:15:30.849Z,17.26
2022-10-16T02:18:32.664Z,16.82
2022-10-16T02:21:41.089Z,17.19
2022-10-16T02:24:42.934Z,17.71
2022-10-16T02:28:03.257Z,17.87
2022-10-16T02:31:06.034Z,17.74
2022-10-16T02:34:08.177Z,17.60
2022-10-16T02:37:11.427Z,17.48
2022-10-16T02:40:13.357Z,17.43
2022-10-16T02:43:15.180Z,16.85
2022-10-16T02:46:17.847Z,17.08
2022-10-16T02:49:19.767Z,16.91
2022-10-16T02:52:21.524Z,17.10
2022-10-16T02:55:23.411Z,17.16
2022-10-16T02:58:25.316Z,16.74
2022-10-16T03:01:27.177Z,16.84
2022-10-16T03:04:29.056Z,16.83
2022-10-16T03:07:30.870Z,16.88
2022-10-16T03:10:32.690Z,16.62
2022-10-16T03:13:34.564Z,15.00
2022-10-16T03:16:36.500Z,15.49
2022-10-16T03:19:38.355Z,16.57
2022-10-16T03:22:40.161Z,16.81
2022-10-16T03:25:42.034Z,16.91
2022-10-16T03:28:43.938Z,16.49
2022-10-16T03:31:46.023Z,16.72
2022-10-16T03:34:47.925Z,16.59
2022-10-16T03:37:49.977Z,16.68
2022-10-16T03:40:51.930Z,16.12
2022-10-16T03:43:53.930Z,15.55
2022-10-16T03:46:55.962Z,16.44
2022-10-16T03:49:57.873Z,16.08
2022-10-16T03:52:59.679Z,15.72
2022-10-16T03:56:01.609Z,15.18
2022-10-16T03:59:03.490Z,15.36
2022-10-16T04:02:05.378Z,16.08
2022-10-16T04:05:07.347Z,16.51
2022-10-16T04:08:09.141Z,16.60
2022-10-16T04:11:10.997Z,16.57
2022-10-16T04:14:12.793Z,16.53
2022-10-16T04:17:14.604Z,16.02
2022-10-16T04:20:16.635Z,16.32
2022-10-16T04:23:18.482Z,16.60
2022-10-16T04:26:20.299Z,15.87
2022-10-16T04:29:22.096Z,16.21
2022-10-16T04:32:24.127Z,16.22
2022-10-16T04:35:25.933Z,16.04
2022-10-16T04:38:28.073Z,15.82
2022-10-16T04:41:29.872Z,14.49
2022-10-16T04:44:31.675Z,15.07
2022-10-16T04:47:33.495Z,14.97
2022-10-16T04:50:35.274Z,14.99
2022-10-16T04:53:37.614Z,14.80
2022-10-16T04:56:47.499Z,14.42
2022-10-16T04:59:49.409Z,15.01
2022-10-16T05:02:51.509Z,14.80
2022-10-16T05:05:53.514Z,14.66
2022-10-16T05:08:55.445Z,14.16
2022-10-16T05:11:57.377Z,14.63
2022-10-16T05:14:59.807Z,14.16
2022-10-16T05:18:01.819Z,15.54
2022-10-16T05:21:03.867Z,15.91
2022-10-16T05:24:05.687Z,15.78
2022-10-16T05:27:07.501Z,15.76
2022-10-16T05:30:11.644Z,15.90
2022-10-16T05:33:14.436Z,16.02
2022-10-16T05:36:16.275Z,16.07
2022-10-16T05:39:18.134Z,15.78
2022-10-16T05:42:19.966Z,14.47
2022-10-16T05:45:21.917Z,15.87
2022-10-16T05:48:24.264Z,15.34
2022-10-16T05:51:26.160Z,16.58
2022-10-16T05:54:27.945Z,16.55
2022-10-16T05:57:29.915Z,17.20
2022-10-16T06:00:31.801Z,17.17
2022-10-16T06:03:34.039Z,17.53
2022-10-16T06:06:37.369Z,18.13
2022-10-16T06:09:39.206Z,18.26
2022-10-16T06:12:41.105Z,18.73
2022-10-16T06:15:43.026Z,19.61
2022-10-16T06:18:44.961Z,19.36
2022-10-16T06:21:46.799Z,20.66
2022-10-16T06:24:48.832Z,19.74
2022-10-16T06:27:50.644Z,19.62
2022-10-16T06:31:02.810Z,21.43
2022-10-16T06:34:11.619Z,21.13
2022-10-16T06:37:13.426Z,19.29
2022-10-16T06:40:15.679Z,18.64
2022-10-16T06:43:17.502Z,19.39
2022-10-16T06:46:20.076Z,18.98
2022-10-16T06:49:23.626Z,20.15
2022-10-16T06:52:25.731Z,21.50
2022-10-16T06:55:27.961Z,21.25
2022-10-16T06:58:29.748Z,20.32
2022-10-16T07:01:31.850Z,21.51
2022-10-16T07:04:33.732Z,22.03
2022-10-16T07:07:35.917Z,21.58
2022-10-16T07:10:37.785Z,21.29
2022-10-16T07:13:41.011Z,21.81
2022-10-16T07:16:42.929Z,20.50
2022-10-16T07:19:45.759Z,22.80
2022-10-16T07:22:47.591Z,20.97
2022-10-16T07:25:54.493Z,22.04
2022-10-16T07:28:56.706Z,21.00
2022-10-16T07:31:58.640Z,19.65
2022-10-16T07:35:00.471Z,18.81
2022-10-16T07:38:02.294Z,17.54
2022-10-16T07:41:05.390Z,17.44
2022-10-16T07:44:07.573Z,16.94
2022-10-16T07:47:09.420Z,18.56
2022-10-16T07:50:11.204Z,17.60
2022-10-16T07:53:13.038Z,18.88
2022-10-16T07:56:15.065Z,18.37
2022-10-16T07:59:17.049Z,18.32
2022-10-16T08:02:18.847Z,17.62
2022-10-16T08:05:20.858Z,17.93
2022-10-16T08:08:23.067Z,17.74
2022-10-16T08:11:25.158Z,16.88
2022-10-16T08:14:27.012Z,17.20
2022-10-16T08:17:29.087Z,17.33
2022-10-16T08:20:31.797Z,17.55
2022-10-16T08:23:34.044Z,18.39
2022-10-16T08:26:35.938Z,18.14
2022-10-16T08:29:37.761Z,17.41
2022-10-16T08:32:39.842Z,16.99
2022-10-16T08:35:41.669Z,17.61
2022-10-16T08:38:43.537Z,17.35
2022-10-16T08:42:04.093Z,17.94
2022-10-16T08:45:09.120Z,17.31
2022-10-16T08:48:31.579Z,16.52
2022-10-16T08:51:39.126Z,17.52
2022-10-16T08:54:44.617Z,17.53
2022-10-16T08:57:46.410Z,17.47
2022-10-16T09:00:49.359Z,17.21
2022-10-16T09:03:54.371Z,17.33
2022-10-16T09:07:02.151Z,17.21
2022-10-16T09:10:03.908Z,17.37
2022-10-16T09:13:38.272Z,17.49
2022-10-16T09:16:41.263Z,17.54
2022-10-16T09:19:45.602Z,18.54
2022-10-16T09:22:47.466Z,18.98
2022-10-16T09:25:50.545Z,19.68
2022-10-16T09:28:53.191Z,18.57
2022-10-16T09:31:55.124Z,19.47
2022-10-16T09:34:58.066Z,19.60
2022-10-16T09:37:59.878Z,18.76
2022-10-16T09:41:03.490Z,19.05
2022-10-16T09:44:06.280Z,19.16
2022-10-16T09:47:16.172Z,18.40
2022-10-16T09:50:26.005Z,18.42
2022-10-16T09:53:36.761Z,19.56
2022-10-16T09:56:40.267Z,19.39
2022-10-16T09:59:52.192Z,19.46
2022-10-16T10:05:59.824Z,21.56
2022-10-16T10:09:07.840Z,23.35
2022-10-16T10:12:19.743Z,24.52
2022-10-16T10:15:25.083Z,25.40
2022-10-16T10:18:27.399Z,26.76
2022-10-16T10:21:29.225Z,25.43
2022-10-16T10:24:31.100Z,23.51
2022-10-16T10:27:53.410Z,24.96
2022-10-16T10:30:58.121Z,24.68
2022-10-16T10:34:06.268Z,24.44
2022-10-16T10:37:17.337Z,24.82
2022-10-16T10:40:29.713Z,24.37
2022-10-16T10:43:31.578Z,24.09
2022-10-16T10:46:35.756Z,22.96
2022-10-16T10:49:41.734Z,24.37
2022-10-16T10:52:51.367Z,24.13
2022-10-16T10:56:05.587Z,23.93
2022-10-16T10:59:07.394Z,23.48
2022-10-16T11:02:12.256Z,22.89
2022-10-16T11:05:17.378Z,21.69
2022-10-16T11:08:20.653Z,20.79
2022-10-16T11:11:26.918Z,22.26
2022-10-16T11:14:40.185Z,21.45
2022-10-16T11:17:54.516Z,22.29
2022-10-16T11:21:01.661Z,23.11
2022-10-16T11:24:06.115Z,22.92
2022-10-16T11:27:09.518Z,27.37
2022-10-16T11:30:31.133Z,28.14
2022-10-16T11:33:36.230Z,25.96
2022-10-16T11:36:42.785Z,23.77
2022-10-16T11:39:44.613Z,24.09
2022-10-16T11:42:48.052Z,23.49
2022-10-16T11:45:54.085Z,23.80
2022-10-16T11:49:01.971Z,23.77
2022-10-16T11:52:15.995Z,22.31
2022-10-16T11:55:32.614Z,22.48
2022-10-16T11:58:35.441Z,22.91
2022-10-16T12:01:39.715Z,22.85
2022-10-16T12:04:46.619Z,23.08
2022-10-16T12:07:53.817Z,22.63
2022-10-16T12:11:05.076Z,22.72
2022-10-16T12:14:06.848Z,22.77
2022-10-16T12:17:20.781Z,23.99
2022-10-16T12:20:26.861Z,23.21
2022-10-16T12:23:28.701Z,23.87
2022-10-16T12:26:34.885Z,23.22
2022-10-16T12:29:40.155Z,23.05
2022-10-16T12:32:49.494Z,23.93
2022-10-16T12:35:51.842Z,22.29
2022-10-16T12:38:53.955Z,23.45
2022-10-16T12:42:03.237Z,24.09
2022-10-16T12:45:22.481Z,25.27
2022-10-16T12:48:29.328Z,24.52
2022-10-16T12:51:39.199Z,24.85
2022-10-16T12:54:42.844Z,23.24
2022-10-16T12:57:50.566Z,24.24
2022-10-16T13:00:56.005Z,24.34
2022-10-16T13:04:16.052Z,25.20
2022-10-16T13:07:29.311Z,25.54
2022-10-16T13:10:40.730Z,27.92
2022-10-16T13:13:50.419Z,28.09
2022-10-16T13:16:55.234Z,28.09
2022-10-16T13:20:15.555Z,31.01
2022-10-16T13:23:26.446Z,32.73
2022-10-16T13:26:41.671Z,34.36
2022-10-16T13:29:43.582Z,34.52
2022-10-16T13:32:46.495Z,36.43
2022-10-16T13:35:50.363Z,34.37
2022-10-16T13:39:21.510Z,36.13
2022-10-16T13:42:27.801Z,35.41
2022-10-16T13:45:30.929Z,33.90
2022-10-16T13:48:33.189Z,34.62
2022-10-16T13:51:35.059Z,29.83
2022-10-16T13:54:36.886Z,31.30
2022-10-16T13:57:38.749Z,29.01
2022-10-16T14:00:40.627Z,25.49
2022-10-16T14:03:42.638Z,25.78
2022-10-16T14:06:45.936Z,25.36
2022-10-16T14:09:49.327Z,25.11
2022-10-16T14:13:01.036Z,24.41
2022-10-16T14:16:04.312Z,24.85
2022-10-16T14:19:11.389Z,24.09
2022-10-16T14:22:25.416Z,23.21
2022-10-16T14:25:29.771Z,23.43
2022-10-16T14:28:31.999Z,23.67
2022-10-16T14:31:34.602Z,23.23
2022-10-16T14:34:37.451Z,23.20
2022-10-16T14:37:39.324Z,23.01
2022-10-16T14:40:47.038Z,23.42
2022-10-16T14:43:52.517Z,23.33
2022-10-16T14:46:54.501Z,22.85
2022-10-16T14:49:58.589Z,23.18
2022-10-16T14:53:00.621Z,23.33
2022-10-16T14:56:06.988Z,23.29
2022-10-16T14:59:09.670Z,23.30
2022-10-16T15:02:30.933Z,23.43
2022-10-16T15:05:33.202Z,22.63
2022-10-16T15:08:35.137Z,22.66
2022-10-16T15:11:37.127Z,22.71
2022-10-16T15:14:38.970Z,23.13
2022-10-16T15:17:40.754Z,21.83
2022-10-16T15:20:42.618Z,22.91
2022-10-16T15:23:44.561Z,22.88
2022-10-16T15:26:50.186Z,22.87
2022-10-16T15:29:52.085Z,22.55
2022-10-16T15:32:54.427Z,22.79
2022-10-16T15:35:56.531Z,22.26
2022-10-16T15:38:58.391Z,21.65
2022-10-16T15:42:00.205Z,21.49
2022-10-16T15:45:02.380Z,22.36
2022-10-16T15:48:04.662Z,21.45
2022-10-16T15:51:07.428Z,22.32
2022-10-16T15:54:09.773Z,21.71
2022-10-16T15:57:11.630Z,22.35
2022-10-16T16:00:14.833Z,21.65
2022-10-16T16:03:16.750Z,22.49
2022-10-16T16:06:18.599Z,21.83
2022-10-16T16:09:20.415Z,22.28
2022-10-16T16:12:22.588Z,22.02
2022-10-16T16:15:24.571Z,21.57
2022-10-16T16:18:26.792Z,21.53
2022-10-16T16:21:28.583Z,21.70
2022-10-16T16:24:30.481Z,21.81
2022-10-16T16:27:35.011Z,21.87
2022-10-16T16:30:37.110Z,21.52
2022-10-16T16:33:38.976Z,21.31
2022-10-16T16:36:41.074Z,21.54
2022-10-16T16:39:43.003Z,21.34
2022-10-16T16:42:44.873Z,21.38
2022-10-16T16:45:46.878Z,20.83
2022-10-16T16:48:51.298Z,21.53
2022-10-16T16:51:53.697Z,21.19
2022-10-16T16:54:55.527Z,20.98
2022-10-16T16:57:57.761Z,20.01
2022-10-16T17:01:19.478Z,20.63
2022-10-16T17:04:22.389Z,20.53
2022-10-16T17:07:26.651Z,20.32
2022-10-16T17:10:28.808Z,20.27
2022-10-16T17:13:32.057Z,20.49
2022-10-16T17:16:34.751Z,20.40
2022-10-16T17:19:36.658Z,19.94
2022-10-16T17:22:38.475Z,19.74
2022-10-16T17:25:40.566Z,19.57
2022-10-16T17:28:42.759Z,19.98
2022-10-16T17:31:45.022Z,19.83
2022-10-16T17:34:46.986Z,19.34
2022-10-16T17:37:48.803Z,19.81
2022-10-16T17:40:50.596Z,19.89
2022-10-16T17:43:52.593Z,19.79
2022-10-16T17:46:54.442Z,19.63
2022-10-16T17:49:57.579Z,19.07
2022-10-16T17:52:59.442Z,19.17
2022-10-16T17:56:13.704Z,20.06
2022-10-16T17:59:15.566Z,19.82
2022-10-16T18:02:18.461Z,19.41
2022-10-16T18:05:20.276Z,19.38
2022-10-16T18:08:25.062Z,19.52
2022-10-16T18:11:29.889Z,19.41
2022-10-16T18:14:31.886Z,19.34
2022-10-16T18:17:37.691Z,19.82
2022-10-16T18:20:39.497Z,19.52
2022-10-16T18:23:41.560Z,18.72
2022-10-16T18:26:43.422Z,18.39
2022-10-16T18:29:45.428Z,19.01
2022-10-16T18:32:47.246Z,18.85
2022-10-16T18:35:49.076Z,19.14
2022-10-16T18:38:51.279Z,19.04
2022-10-16T18:41:59.746Z,18.13
2022-10-16T18:45:01.895Z,18.73
2022-10-16T18:48:03.935Z,18.74
2022-10-16T18:51:06.635Z,17.70
2022-10-16T18:54:09.143Z,18.31
2022-10-16T18:57:10.958Z,18.93
2022-10-16T19:00:12.855Z,18.48
2022-10-16T19:03:14.758Z,18.32
2022-10-16T19:06:16.911Z,18.00
2022-10-16T19:09:19.180Z,17.92
2022-10-16T19:12:21.147Z,17.91
2022-10-16T19:15:23.480Z,18.36
2022-10-16T19:18:27.018Z,18.73
2022-10-16T19:21:29.545Z,18.56
2022-10-16T19:24:31.415Z,18.36
2022-10-16T19:27:33.209Z,18.43
2022-10-16T19:30:41.455Z,18.14
2022-10-16T19:33:43.403Z,18.22
2022-10-16T19:36:45.238Z,18.14
2022-10-16T19:39:47.039Z,18.63
2022-10-16T19:42:48.879Z,18.93
2022-10-16T19:45:50.651Z,19.08
2022-10-16T19:48:56.243Z,18.03
2022-10-16T19:51:58.055Z,18.15
2022-10-16T19:54:59.865Z,17.46
2022-10-16T19:58:01.694Z,17.50
2022-10-16T20:01:03.600Z,17.46
2022-10-16T20:04:05.448Z,18.28
2022-10-16T20:07:07.320Z,17.85
2022-10-16T20:10:09.361Z,17.97
2022-10-16T20:13:12.904Z,16.83
2022-10-16T20:16:16.018Z,17.25
2022-10-16T20:19:17.827Z,16.96
2022-10-16T20:22:19.632Z,17.41
2022-10-16T20:25:21.514Z,16.77
2022-10-16T20:28:23.479Z,17.26
2022-10-16T20:31:28.656Z,16.92
2022-10-16T20:34:30.511Z,16.85
2022-10-16T20:37:32.317Z,17.70
2022-10-16T20:40:37.350Z,17.27
2022-10-16T20:43:39.992Z,16.90
2022-10-16T20:46:42.512Z,17.63
2022-10-16T20:49:44.322Z,17.47
2022-10-16T20:52:46.135Z,17.39
2022-10-16T20:55:48.017Z,17.23
2022-10-16T20:58:49.936Z,17.16
2022-10-16T21:01:51.904Z,17.03
2022-10-16T21:04:54.640Z,17.29
2022-10-16T21:07:56.470Z,16.96
2022-10-16T21:10:58.278Z,16.84
2022-10-16T21:14:01.497Z,16.69
2022-10-16T21:17:03.325Z,16.84
2022-10-16T21:20:05.529Z,16.95
2022-10-16T21:23:07.319Z,17.50
2022-10-16T21:26:09.147Z,17.53
2022-10-16T21:29:11.187Z,17.35
2022-10-16T21:32:13.088Z,16.36
2022-10-16T21:35:14.888Z,16.74
2022-10-16T21:38:16.763Z,15.82
2022-10-16T21:41:18.526Z,15.34
2022-10-16T21:44:20.442Z,15.75
2022-10-16T21:47:22.298Z,15.77
2022-10-16T21:50:24.241Z,15.91
2022-10-16T21:53:26.075Z,15.34
2022-10-16T21:56:28.116Z,15.49
2022-10-16T21:59:29.943Z,15.16
2022-10-16T22:02:31.763Z,15.42
2022-10-16T22:05:34.116Z,15.45
2022-10-16T22:08:36.438Z,15.73
2022-10-16T22:11:38.296Z,16.55
2022-10-16T22:14:40.102Z,16.39
2022-10-16T22:17:41.869Z,15.81
2022-10-16T22:20:46.873Z,15.21
2022-10-16T22:23:48.696Z,15.94
2022-10-16T22:26:50.576Z,15.20
2022-10-16T22:29:52.623Z,14.70
2022-10-16T22:32:54.438Z,15.16
2022-10-16T22:35:56.242Z,14.88
2022-10-16T22:38:58.187Z,15.37
2022-10-16T22:42:00.006Z,15.73
2022-10-16T22:45:01.815Z,15.87
2022-10-16T22:48:04.236Z,15.95
2022-10-16T22:51:06.324Z,14.82
2022-10-16T22:54:08.192Z,14.62
2022-10-16T22:57:10.018Z,15.61
2022-10-16T23:00:13.011Z,15.38
2022-10-16T23:03:14.911Z,14.95
2022-10-16T23:06:16.794Z,14.98
2022-10-16T23:09:18.586Z,15.40
2022-10-16T23:12:21.748Z,15.58
2022-10-16T23:15:23.625Z,15.97
2022-10-16T23:18:25.419Z,15.28
2022-10-16T23:21:27.248Z,14.51
2022-10-16T23:24:30.168Z,14.81
2022-10-16T23:27:32.243Z,15.75
2022-10-16T23:30:34.028Z,16.29
2022-10-16T23:33:36.201Z,15.89
2022-10-16T23:36:38.001Z,15.30
2022-10-16T23:39:39.829Z,15.68
2022-10-16T23:42:41.632Z,15.91
2022-10-16T23:45:43.438Z,15.95
2022-10-16T23:48:45.246Z,15.73
2022-10-16T23:51:47.046Z,15.56
2022-10-16T23:54:48.902Z,15.33
2022-10-16T23:57:50.718Z,15.20
